Time;durP1;ratioP1;P1;durP2;ratioP2;P2;SDS_P1;SDS_P2;PMS_P1;PMS_P2;Temp;Humidity;BMP_temperature;BMP_pressure;BME280_temperature;BME280_humidity;BME280_pressure;Samples;Min_cycle;Max_cycle;Signal;HPM_P1;HPM_P2
2021/12/06 00:01:34;;;;;;;12.57;7.15;;;;;;;;;;4993987;28;20033;-68
2021/12/06 00:04:22;;;;;;;15.02;8.13;;;;;;;;;;4934665;28;20457;-66
2021/12/06 00:07:09;;;;;;;12.10;6.93;;;;;;;;;;4986242;28;20036;-64
2021/12/06 00:09:54;;;;;;;12.00;7.28;;;;;;;;;;4993768;28;20087;-70
2021/12/06 00:12:41;;;;;;;11.50;7.72;;;;;;;;;;4968441;28;20029;-70
2021/12/06 00:15:31;;;;;;;11.75;7.50;;;;;;;;;;4987966;28;20031;-69
2021/12/06 00:18:17;;;;;;;12.82;7.30;;;;;;;;;;4993855;28;20226;-70
2021/12/06 00:21:02;;;;;;;9.82;7.20;;;;;;;;;;4987610;28;20026;-70
2021/12/06 00:23:49;;;;;;;12.45;6.38;;;;;;;;;;4990959;28;20075;-70
2021/12/06 00:26:34;;;;;;;13.27;7.70;;;;;;;;;;4990235;28;20049;-67
2021/12/06 00:29:19;;;;;;;11.48;6.20;;;;;;;;;;5019303;28;20038;-74
2021/12/06 00:32:05;;;;;;;10.63;6.63;;;;;;;;;;4980078;28;20044;-74
2021/12/06 00:34:50;;;;;;;13.07;7.22;;;;;;;;;;4994557;28;20048;-76
2021/12/06 00:37:52;;;;;;;10.45;5.90;;;;;;;;;;4992035;28;20033;-75
2021/12/06 00:40:45;;;;;;;9.95;6.60;;;;;;;;;;4993468;28;20487;-75
2021/12/06 00:43:31;;;;;;;11.85;6.65;;;;;;;;;;4994468;28;20030;-66
2021/12/06 00:46:16;;;;;;;9.90;6.22;;;;;;;;;;4992251;28;20045;-67
2021/12/06 00:49:02;;;;;;;12.32;6.75;;;;;;;;;;4994767;28;20061;-66
2021/12/06 00:51:47;;;;;;;10.43;6.60;;;;;;;;;;4993019;28;20033;-66
2021/12/06 00:54:35;;;;;;;11.57;5.63;;;;;;;;;;4993673;28;20058;-65
2021/12/06 00:57:20;;;;;;;14.85;7.78;;;;;;;;;;4993279;28;20038;-69
2021/12/06 01:00:08;;;;;;;8.93;5.93;;;;;;;;;;4990729;28;20037;-68
2021/12/06 01:02:54;;;;;;;10.98;6.20;;;;;;;;;;4991456;28;20541;-77
2021/12/06 01:05:40;;;;;;;10.05;6.10;;;;;;;;;;4994028;28;20034;-62
2021/12/06 01:08:25;;;;;;;9.95;6.05;;;;;;;;;;4993057;28;20075;-62
2021/12/06 01:11:11;;;;;;;10.23;5.72;;;;;;;;;;4994003;28;20643;-63
2021/12/06 01:13:56;;;;;;;9.57;6.15;;;;;;;;;;4993704;28;20165;-62
2021/12/06 01:16:41;;;;;;;12.27;6.15;;;;;;;;;;4978783;28;20030;-63
2021/12/06 01:19:30;;;;;;;10.13;5.82;;;;;;;;;;5058645;28;20055;-73
2021/12/06 01:25:19;;;;;;;11.93;6.50;;;;;;;;;;5069358;28;20127;-65
2021/12/06 01:31:57;;;;;;;10.32;5.45;;;;;;;;;;5058509;28;20024;-63
2021/12/06 01:40:26;;;;;;;10.77;5.85;;;;;;;;;;5070445;28;20017;-69
2021/12/06 01:43:12;;;;;;;10.55;6.63;;;;;;;;;;5055207;28;20107;-67
2021/12/06 01:45:57;;;;;;;11.18;5.53;;;;;;;;;;5069923;28;20036;-66
2021/12/06 01:48:42;;;;;;;11.95;6.47;;;;;;;;;;5064534;28;20060;-67
2021/12/06 01:51:28;;;;;;;11.73;6.00;;;;;;;;;;5069587;28;20035;-68
2021/12/06 01:54:15;;;;;;;10.10;6.40;;;;;;;;;;5046442;28;20067;-67
2021/12/06 01:57:01;;;;;;;10.20;5.53;;;;;;;;;;5056211;28;20028;-64
2021/12/06 01:59:46;;;;;;;13.20;6.82;;;;;;;;;;5057257;28;20388;-65
2021/12/06 02:02:31;;;;;;;10.38;6.15;;;;;;;;;;5069242;28;20040;-65
2021/12/06 02:05:17;;;;;;;11.27;6.88;;;;;;;;;;5049045;28;20032;-64
2021/12/06 02:08:02;;;;;;;12.18;5.93;;;;;;;;;;5068261;28;20027;-65
2021/12/06 02:10:48;;;;;;;9.95;6.80;;;;;;;;;;5066103;28;20028;-62
2021/12/06 02:13:46;;;;;;;12.05;6.68;;;;;;;;;;5060431;28;20112;-63
2021/12/06 02:16:43;;;;;;;8.63;5.72;;;;;;;;;;5051355;28;20189;-71
2021/12/06 02:19:34;;;;;;;10.85;5.82;;;;;;;;;;5067336;28;20053;-67
2021/12/06 02:22:21;;;;;;;10.73;6.15;;;;;;;;;;5058794;28;20423;-69
2021/12/06 02:25:09;;;;;;;11.90;7.03;;;;;;;;;;5045033;28;20678;-68
2021/12/06 02:27:55;;;;;;;10.02;5.53;;;;;;;;;;5062321;28;20399;-70
2021/12/06 02:30:40;;;;;;;9.43;5.18;;;;;;;;;;5067517;28;20044;-67
2021/12/06 02:33:25;;;;;;;8.38;5.88;;;;;;;;;;5068269;28;20021;-69
2021/12/06 02:36:11;;;;;;;10.52;5.95;;;;;;;;;;5060828;28;20106;-64
2021/12/06 02:38:56;;;;;;;9.13;5.25;;;;;;;;;;5054598;28;20077;-64
2021/12/06 02:41:42;;;;;;;11.50;5.60;;;;;;;;;;5068107;28;20360;-64
2021/12/06 02:44:27;;;;;;;10.05;6.13;;;;;;;;;;5068578;28;20117;-64
2021/12/06 02:47:14;;;;;;;16.35;7.07;;;;;;;;;;5050479;28;20031;-62
2021/12/06 02:50:06;;;;;;;11.63;7.22;;;;;;;;;;5065716;28;20039;-64
2021/12/06 02:52:51;;;;;;;8.77;5.95;;;;;;;;;;5038896;28;20042;-63
2021/12/06 02:55:37;;;;;;;9.13;6.00;;;;;;;;;;5067245;28;20035;-67
2021/12/06 03:01:22;;;;;;;10.98;6.10;;;;;;;;;;5074135;28;20035;-70
2021/12/06 03:04:08;;;;;;;12.77;6.28;;;;;;;;;;5042701;28;20458;-66
2021/12/06 03:06:55;;;;;;;10.55;6.75;;;;;;;;;;5055882;28;20028;-66
2021/12/06 03:09:41;;;;;;;11.25;5.80;;;;;;;;;;5068497;28;20582;-64
2021/12/06 03:12:26;;;;;;;10.07;6.03;;;;;;;;;;5066976;28;20029;-63
2021/12/06 03:15:11;;;;;;;9.43;5.60;;;;;;;;;;5065845;28;20426;-71
2021/12/06 03:17:57;;;;;;;10.38;6.50;;;;;;;;;;5066926;28;20143;-70
2021/12/06 03:20:42;;;;;;;12.18;6.72;;;;;;;;;;5068706;28;20513;-69
2021/12/06 03:23:27;;;;;;;9.85;6.05;;;;;;;;;;5061506;28;20079;-68
2021/12/06 03:26:13;;;;;;;11.73;6.00;;;;;;;;;;5067022;28;20028;-72
2021/12/06 03:28:59;;;;;;;10.23;5.82;;;;;;;;;;5066416;28;20356;-67
2021/12/06 03:31:46;;;;;;;11.18;6.43;;;;;;;;;;5059371;28;20492;-62
2021/12/06 03:34:32;;;;;;;11.13;6.32;;;;;;;;;;5055241;28;20033;-63
2021/12/06 03:37:17;;;;;;;8.88;6.13;;;;;;;;;;5053580;28;20029;-62
2021/12/06 03:40:03;;;;;;;10.80;7.20;;;;;;;;;;5067750;28;20021;-62
2021/12/06 03:42:48;;;;;;;11.30;5.38;;;;;;;;;;5066608;28;20387;-64
2021/12/06 03:45:35;;;;;;;11.73;6.10;;;;;;;;;;5065768;28;20124;-64
2021/12/06 03:48:20;;;;;;;11.73;6.88;;;;;;;;;;5056264;28;20383;-70
2021/12/06 03:51:06;;;;;;;11.35;5.75;;;;;;;;;;5068083;28;20028;-64
2021/12/06 03:53:51;;;;;;;11.68;6.22;;;;;;;;;;5066989;28;20528;-68
2021/12/06 03:56:38;;;;;;;12.40;5.90;;;;;;;;;;5067879;28;20108;-66
2021/12/06 03:59:24;;;;;;;12.73;5.97;;;;;;;;;;5064601;28;20032;-64
2021/12/06 04:02:11;;;;;;;11.15;6.18;;;;;;;;;;5054040;28;20043;-68
2021/12/06 04:04:56;;;;;;;11.68;7.00;;;;;;;;;;5046907;28;20033;-69
2021/12/06 04:07:42;;;;;;;12.77;6.43;;;;;;;;;;5068181;28;20208;-65
2021/12/06 04:10:27;;;;;;;9.25;6.32;;;;;;;;;;5060650;28;20029;-64
2021/12/06 04:13:12;;;;;;;11.70;6.30;;;;;;;;;;5054417;28;20099;-63
2021/12/06 04:15:58;;;;;;;10.32;6.50;;;;;;;;;;5067262;28;20028;-63
2021/12/06 04:18:44;;;;;;;10.98;7.63;;;;;;;;;;5067560;28;20500;-65
2021/12/06 04:21:29;;;;;;;15.68;9.32;;;;;;;;;;5052509;28;20290;-63
2021/12/06 04:24:15;;;;;;;17.85;12.65;;;;;;;;;;5060864;28;20699;-67
2021/12/06 04:27:11;;;;;;;21.58;16.25;;;;;;;;;;5070367;28;20029;-66
2021/12/06 04:29:57;;;;;;;22.85;16.58;;;;;;;;;;5070281;28;20089;-68
2021/12/06 04:32:42;;;;;;;24.88;16.63;;;;;;;;;;5071094;28;20101;-66
2021/12/06 04:35:28;;;;;;;20.02;15.73;;;;;;;;;;5066235;28;20024;-67
2021/12/06 04:38:14;;;;;;;16.58;11.50;;;;;;;;;;5056829;28;20503;-67
2021/12/06 04:40:59;;;;;;;12.85;7.75;;;;;;;;;;5069362;28;20047;-65
2021/12/06 04:43:44;;;;;;;13.32;8.15;;;;;;;;;;5071769;28;20020;-61
2021/12/06 04:46:30;;;;;;;12.82;8.45;;;;;;;;;;5068167;28;20036;-60
2021/12/06 04:49:15;;;;;;;12.80;8.40;;;;;;;;;;5058723;28;20085;-62
2021/12/06 04:52:02;;;;;;;13.20;8.07;;;;;;;;;;5058843;28;20048;-62
2021/12/06 04:54:49;;;;;;;16.65;10.07;;;;;;;;;;5057084;28;20055;-62
2021/12/06 04:57:37;;;;;;;15.45;8.60;;;;;;;;;;5060993;28;20021;-61
2021/12/06 05:00:28;;;;;;;13.25;7.43;;;;;;;;;;5066806;28;20040;-74
2021/12/06 05:03:14;;;;;;;10.32;6.82;;;;;;;;;;5053869;28;20115;-66
2021/12/06 05:06:12;;;;;;;10.82;7.35;;;;;;;;;;5062779;28;20139;-66
2021/12/06 05:09:00;;;;;;;14.75;7.85;;;;;;;;;;5069923;28;20021;-67
2021/12/06 05:11:45;;;;;;;11.32;7.50;;;;;;;;;;5069012;28;20084;-67
2021/12/06 05:14:31;;;;;;;16.42;7.35;;;;;;;;;;5070162;28;20038;-66
2021/12/06 05:17:17;;;;;;;14.10;8.70;;;;;;;;;;5048360;28;20024;-67
2021/12/06 05:20:04;;;;;;;12.65;7.57;;;;;;;;;;4992850;28;20029;-65
2021/12/06 05:22:49;;;;;;;12.88;8.52;;;;;;;;;;4991994;28;20436;-68
2021/12/06 05:25:35;;;;;;;14.15;9.18;;;;;;;;;;4989090;28;20034;-67
2021/12/06 05:28:25;;;;;;;16.23;10.05;;;;;;;;;;4992724;28;20032;-66
2021/12/06 05:31:20;;;;;;;16.70;9.57;;;;;;;;;;4992754;28;20109;-66
2021/12/06 05:34:11;;;;;;;10.75;7.35;;;;;;;;;;5001448;28;20025;-67
2021/12/06 05:36:57;;;;;;;13.07;8.70;;;;;;;;;;4992201;28;20026;-63
2021/12/06 05:39:42;;;;;;;17.33;9.80;;;;;;;;;;4992155;28;20037;-69
2021/12/06 05:42:27;;;;;;;15.15;9.77;;;;;;;;;;4992354;28;20066;-67
2021/12/06 05:45:14;;;;;;;13.68;9.32;;;;;;;;;;4993077;28;20048;-66
2021/12/06 05:47:59;;;;;;;15.20;11.10;;;;;;;;;;4973253;28;20045;-66
2021/12/06 05:50:46;;;;;;;18.00;10.50;;;;;;;;;;4991778;28;20511;-65
2021/12/06 05:53:31;;;;;;;20.52;10.75;;;;;;;;;;4988551;28;20027;-66
2021/12/06 05:56:16;;;;;;;16.13;11.27;;;;;;;;;;5017329;28;20030;-67
2021/12/06 05:59:02;;;;;;;22.10;13.48;;;;;;;;;;4992137;28;20019;-63
2021/12/06 06:01:49;;;;;;;20.75;12.82;;;;;;;;;;4993428;28;20033;-63
2021/12/06 06:04:35;;;;;;;15.75;10.90;;;;;;;;;;4991622;28;20053;-65
2021/12/06 06:07:21;;;;;;;18.55;11.02;;;;;;;;;;4993324;28;20018;-64
2021/12/06 06:10:06;;;;;;;23.27;14.23;;;;;;;;;;4991611;28;20034;-63
2021/12/06 06:12:52;;;;;;;18.92;11.02;;;;;;;;;;4977648;28;20381;-64
2021/12/06 06:15:37;;;;;;;20.48;14.00;;;;;;;;;;4979136;28;20407;-69
2021/12/06 06:18:22;;;;;;;22.45;14.75;;;;;;;;;;4993544;28;20046;-64
2021/12/06 06:21:07;;;;;;;20.55;15.23;;;;;;;;;;4983885;28;20037;-63
2021/12/06 06:23:53;;;;;;;22.10;15.85;;;;;;;;;;4989514;28;20030;-64
2021/12/06 06:26:38;;;;;;;20.40;14.40;;;;;;;;;;4993111;28;20086;-64
2021/12/06 06:29:23;;;;;;;23.38;15.43;;;;;;;;;;4993667;28;20018;-64
2021/12/06 06:32:09;;;;;;;21.95;15.10;;;;;;;;;;4980792;28;20018;-63
2021/12/06 06:34:54;;;;;;;25.52;16.67;;;;;;;;;;4991855;28;20026;-70
2021/12/06 06:37:39;;;;;;;23.63;16.05;;;;;;;;;;4992691;28;20026;-66
2021/12/06 06:40:25;;;;;;;27.73;17.63;;;;;;;;;;4991691;28;20600;-67
2021/12/06 06:43:10;;;;;;;25.42;18.85;;;;;;;;;;4987371;28;20559;-69
2021/12/06 06:45:55;;;;;;;25.52;17.25;;;;;;;;;;4972947;28;20042;-68
2021/12/06 06:48:41;;;;;;;27.80;18.35;;;;;;;;;;4974543;28;20457;-68
2021/12/06 06:51:27;;;;;;;24.85;17.02;;;;;;;;;;4964454;28;20515;-69
2021/12/06 06:54:14;;;;;;;24.35;16.77;;;;;;;;;;4992362;28;20053;-66
2021/12/06 06:56:59;;;;;;;27.17;19.10;;;;;;;;;;4991109;28;20057;-69
2021/12/06 06:59:45;;;;;;;24.23;18.02;;;;;;;;;;5008253;28;20083;-64
2021/12/06 07:02:31;;;;;;;23.10;16.77;;;;;;;;;;4990298;28;20038;-67
2021/12/06 07:05:16;;;;;;;26.52;18.17;;;;;;;;;;4985566;28;20099;-65
2021/12/06 07:08:02;;;;;;;24.00;16.75;;;;;;;;;;4978561;28;20033;-66
2021/12/06 07:10:50;;;;;;;28.73;20.23;;;;;;;;;;4968626;28;20057;-66
2021/12/06 07:13:38;;;;;;;28.13;18.75;;;;;;;;;;4987224;28;20046;-61
2021/12/06 07:16:24;;;;;;;29.65;20.52;;;;;;;;;;4994742;28;20053;-64
2021/12/06 07:19:09;;;;;;;29.42;20.38;;;;;;;;;;4985506;28;20054;-76
2021/12/06 07:21:54;;;;;;;31.23;20.33;;;;;;;;;;4983209;28;20025;-79
2021/12/06 07:24:40;;;;;;;27.52;18.55;;;;;;;;;;4985781;28;20079;-71
2021/12/06 07:27:25;;;;;;;26.45;18.52;;;;;;;;;;5002554;28;20410;-68
2021/12/06 07:30:11;;;;;;;29.20;20.58;;;;;;;;;;5003329;28;20140;-70
2021/12/06 07:32:56;;;;;;;24.35;17.98;;;;;;;;;;4988496;28;20037;-71
2021/12/06 07:35:42;;;;;;;28.05;19.98;;;;;;;;;;4992131;28;20030;-71
2021/12/06 07:38:27;;;;;;;25.23;17.65;;;;;;;;;;4982234;28;20019;-71
2021/12/06 07:41:13;;;;;;;27.33;17.33;;;;;;;;;;4986787;28;20029;-70
2021/12/06 07:43:59;;;;;;;24.42;16.42;;;;;;;;;;4989717;28;20546;-69
2021/12/06 07:46:46;;;;;;;24.38;17.90;;;;;;;;;;4978980;28;20089;-66
2021/12/06 07:49:31;;;;;;;26.50;18.70;;;;;;;;;;4972584;28;20061;-71
2021/12/06 07:52:17;;;;;;;25.38;18.27;;;;;;;;;;4976415;28;20033;-72
2021/12/06 07:55:04;;;;;;;26.92;17.88;;;;;;;;;;4992491;28;20030;-70
2021/12/06 07:57:49;;;;;;;29.13;19.48;;;;;;;;;;4978411;28;20042;-71
2021/12/06 08:00:37;;;;;;;24.65;18.38;;;;;;;;;;4993384;28;20520;-70
2021/12/06 08:03:26;;;;;;;24.40;16.10;;;;;;;;;;4992929;28;20026;-71
2021/12/06 08:06:11;;;;;;;23.08;17.38;;;;;;;;;;4992487;28;20051;-68
2021/12/06 08:08:56;;;;;;;27.10;17.08;;;;;;;;;;4992918;28;20072;-67
2021/12/06 08:11:42;;;;;;;27.13;18.70;;;;;;;;;;4991653;28;20739;-65
2021/12/06 08:14:27;;;;;;;25.48;17.67;;;;;;;;;;4981596;28;20121;-66
2021/12/06 08:17:15;;;;;;;24.23;18.25;;;;;;;;;;4994041;28;20018;-64
2021/12/06 08:20:00;;;;;;;25.15;16.98;;;;;;;;;;4989416;28;20057;-67
2021/12/06 08:22:46;;;;;;;21.20;15.77;;;;;;;;;;4989090;28;20116;-63
2021/12/06 08:25:31;;;;;;;23.90;17.05;;;;;;;;;;5007397;28;20068;-63
2021/12/06 08:28:17;;;;;;;24.25;16.50;;;;;;;;;;4988642;28;20022;-63
2021/12/06 08:31:04;;;;;;;25.65;17.48;;;;;;;;;;4987453;28;20018;-62
2021/12/06 08:33:50;;;;;;;24.38;17.45;;;;;;;;;;4986837;28;20042;-65
2021/12/06 08:36:35;;;;;;;24.50;15.48;;;;;;;;;;4993394;28;20025;-65
2021/12/06 08:39:20;;;;;;;24.98;16.20;;;;;;;;;;4992564;28;20033;-63
2021/12/06 08:42:06;;;;;;;21.45;15.90;;;;;;;;;;4994515;28;20079;-71
2021/12/06 08:44:52;;;;;;;21.35;15.57;;;;;;;;;;4975051;28;20034;-62
2021/12/06 08:47:38;;;;;;;26.42;17.00;;;;;;;;;;4966191;28;20039;-68
2021/12/06 08:50:24;;;;;;;19.05;13.50;;;;;;;;;;5009110;28;20325;-64
2021/12/06 08:53:09;;;;;;;20.85;14.48;;;;;;;;;;4978147;28;20033;-65
2021/12/06 08:55:54;;;;;;;20.23;14.20;;;;;;;;;;4995353;28;20034;-63
2021/12/06 08:58:40;;;;;;;22.63;15.02;;;;;;;;;;4993762;28;20045;-67
2021/12/06 09:01:26;;;;;;;24.38;15.32;;;;;;;;;;4986608;28;20025;-65
2021/12/06 09:04:12;;;;;;;22.08;14.88;;;;;;;;;;4992346;28;20432;-73
2021/12/06 09:06:58;;;;;;;19.20;13.73;;;;;;;;;;4992091;28;20030;-74
2021/12/06 09:09:49;;;;;;;20.20;13.10;;;;;;;;;;4994160;28;20034;-71
2021/12/06 09:12:34;;;;;;;19.85;13.48;;;;;;;;;;4988094;28;20036;-69
2021/12/06 09:15:20;;;;;;;18.23;12.48;;;;;;;;;;4991962;28;20591;-74
2021/12/06 09:18:06;;;;;;;20.17;12.95;;;;;;;;;;4980037;28;20056;-64
2021/12/06 09:20:52;;;;;;;17.90;11.60;;;;;;;;;;4984773;28;20053;-65
2021/12/06 09:23:37;;;;;;;16.42;11.48;;;;;;;;;;4993205;28;20034;-64
2021/12/06 09:26:22;;;;;;;16.65;11.77;;;;;;;;;;4991737;28;20040;-64
2021/12/06 09:29:08;;;;;;;17.98;12.15;;;;;;;;;;4976356;28;20246;-64
2021/12/06 09:31:54;;;;;;;18.27;11.95;;;;;;;;;;4985028;28;20068;-64
2021/12/06 09:34:43;;;;;;;16.73;12.20;;;;;;;;;;4993277;28;20421;-64
2021/12/06 09:37:28;;;;;;;19.88;12.15;;;;;;;;;;4991763;28;20048;-63
2021/12/06 09:40:15;;;;;;;15.60;10.93;;;;;;;;;;4993619;28;20026;-65
2021/12/06 09:43:01;;;;;;;17.33;10.50;;;;;;;;;;4978609;28;20023;-65
2021/12/06 09:45:47;;;;;;;17.17;11.15;;;;;;;;;;4992729;28;20041;-63
2021/12/06 09:48:32;;;;;;;14.65;11.23;;;;;;;;;;4976702;28;20538;-65
2021/12/06 09:51:25;;;;;;;15.73;10.38;;;;;;;;;;4991908;28;20065;-65
2021/12/06 09:54:10;;;;;;;17.58;12.00;;;;;;;;;;4985130;28;20030;-65
2021/12/06 09:56:56;;;;;;;17.35;9.88;;;;;;;;;;4991659;28;20045;-66
2021/12/06 09:59:42;;;;;;;18.05;11.20;;;;;;;;;;4993424;28;20125;-64
2021/12/06 10:02:27;;;;;;;20.88;12.90;;;;;;;;;;4977667;28;20051;-67
2021/12/06 10:05:13;;;;;;;14.85;10.38;;;;;;;;;;4976392;28;20393;-64
2021/12/06 10:07:59;;;;;;;16.35;9.77;;;;;;;;;;4991487;28;20507;-65
2021/12/06 10:10:45;;;;;;;15.65;9.07;;;;;;;;;;4993043;28;20117;-62
2021/12/06 10:13:30;;;;;;;15.68;9.90;;;;;;;;;;4989318;28;20029;-70
2021/12/06 10:16:16;;;;;;;15.50;9.23;;;;;;;;;;4971144;28;20102;-69
2021/12/06 10:19:02;;;;;;;15.60;9.48;;;;;;;;;;4960152;28;20054;-68
2021/12/06 10:21:47;;;;;;;19.20;10.75;;;;;;;;;;4978886;28;20086;-69
2021/12/06 10:24:32;;;;;;;15.75;9.95;;;;;;;;;;5002738;28;20028;-68
2021/12/06 10:27:18;;;;;;;17.90;10.75;;;;;;;;;;5003505;28;20121;-72
2021/12/06 10:30:07;;;;;;;19.17;11.85;;;;;;;;;;4986351;28;20455;-70
2021/12/06 10:32:59;;;;;;;17.23;10.80;;;;;;;;;;4990573;28;20476;-64
2021/12/06 10:35:46;;;;;;;16.85;10.52;;;;;;;;;;4979040;28;20034;-64
2021/12/06 10:38:33;;;;;;;16.40;10.65;;;;;;;;;;5007830;28;20519;-64
2021/12/06 10:41:25;;;;;;;20.30;11.27;;;;;;;;;;4979001;28;20109;-64
2021/12/06 10:44:11;;;;;;;16.63;9.98;;;;;;;;;;4977226;28;20396;-67
2021/12/06 10:46:57;;;;;;;15.02;9.55;;;;;;;;;;4993450;28;20481;-63
2021/12/06 10:49:46;;;;;;;14.25;8.75;;;;;;;;;;4990613;28;20044;-71
2021/12/06 10:52:31;;;;;;;17.83;8.48;;;;;;;;;;4978685;28;20026;-71
2021/12/06 10:55:17;;;;;;;14.43;8.63;;;;;;;;;;4980931;28;20599;-70
2021/12/06 10:58:04;;;;;;;13.32;7.82;;;;;;;;;;4990716;28;20480;-71
2021/12/06 11:00:54;;;;;;;13.18;7.78;;;;;;;;;;4993167;28;20034;-72
2021/12/06 11:03:41;;;;;;;12.90;7.32;;;;;;;;;;4991801;28;20040;-71
2021/12/06 11:06:32;;;;;;;13.02;6.85;;;;;;;;;;4975994;28;20045;-73
2021/12/06 11:09:19;;;;;;;12.38;6.95;;;;;;;;;;4977871;28;20022;-71
2021/12/06 11:12:06;;;;;;;10.85;7.28;;;;;;;;;;4971266;28;20031;-74
2021/12/06 11:14:51;;;;;;;13.40;7.78;;;;;;;;;;5011517;28;20022;-76
2021/12/06 11:17:37;;;;;;;13.40;7.78;;;;;;;;;;4991108;28;20442;-75
2021/12/06 11:20:22;;;;;;;14.57;7.10;;;;;;;;;;4987197;28;20477;-73
2021/12/06 11:23:08;;;;;;;11.85;6.80;;;;;;;;;;4989492;28;20044;-75
2021/12/06 11:25:57;;;;;;;11.07;6.30;;;;;;;;;;4987128;28;20037;-75
2021/12/06 11:28:42;;;;;;;9.05;5.75;;;;;;;;;;4978259;28;20553;-69
2021/12/06 11:31:27;;;;;;;11.13;6.85;;;;;;;;;;4992883;28;20112;-75
2021/12/06 11:34:13;;;;;;;10.02;5.93;;;;;;;;;;4981669;28;20018;-75
2021/12/06 11:36:58;;;;;;;10.93;6.38;;;;;;;;;;4993638;28;20037;-73
2021/12/06 11:39:45;;;;;;;10.63;6.03;;;;;;;;;;4995035;28;20026;-74
2021/12/06 11:42:30;;;;;;;11.45;6.05;;;;;;;;;;4999067;28;20032;-75
2021/12/06 11:45:29;;;;;;;9.93;5.53;;;;;;;;;;5060899;28;20026;-67
2021/12/06 11:48:16;;;;;;;10.10;5.50;;;;;;;;;;4984592;28;20544;-65
2021/12/06 11:51:12;;;;;;;11.15;5.72;;;;;;;;;;5053985;28;20034;-64
2021/12/06 11:53:58;;;;;;;8.73;5.57;;;;;;;;;;5001732;28;20026;-67
2021/12/06 11:56:48;;;;;;;10.75;5.90;;;;;;;;;;4993285;28;20524;-64
2021/12/06 11:59:33;;;;;;;;;;;;;;;;;;4991796;28;20635;-63
2021/12/06 12:02:32;;;;;;;8.40;5.00;;;;;;;;;;4974309;28;19917;-63
2021/12/06 12:05:24;;;;;;;9.20;4.97;;;;;;;;;;4981093;28;20058;-71
2021/12/06 12:08:09;;;;;;;8.63;4.43;;;;;;;;;;4993514;28;20430;-71
2021/12/06 12:10:55;;;;;;;9.93;4.47;;;;;;;;;;4994737;28;20113;-71
2021/12/06 12:13:42;;;;;;;7.65;4.50;;;;;;;;;;4993416;28;20392;-70
2021/12/06 12:16:28;;;;;;;9.82;4.80;;;;;;;;;;4983861;28;20019;-69
2021/12/06 12:19:13;;;;;;;8.85;4.55;;;;;;;;;;4989434;28;20500;-61
2021/12/06 12:21:58;;;;;;;9.68;4.95;;;;;;;;;;4986661;28;20039;-68
2021/12/06 12:24:48;;;;;;;10.85;4.05;;;;;;;;;;4991996;28;20029;-65
2021/12/06 12:27:46;;;;;;;7.95;4.07;;;;;;;;;;4994754;28;20037;-67
2021/12/06 12:30:33;;;;;;;7.60;4.45;;;;;;;;;;4989872;28;20533;-69
2021/12/06 12:33:19;;;;;;;6.97;4.40;;;;;;;;;;4970741;28;20030;-71
2021/12/06 12:36:07;;;;;;;6.78;4.50;;;;;;;;;;4994393;28;20483;-66
2021/12/06 12:38:54;;;;;;;6.78;4.25;;;;;;;;;;4967185;28;20625;-65
2021/12/06 12:41:46;;;;;;;8.57;4.68;;;;;;;;;;4993060;28;20038;-63
2021/12/06 12:45:03;;;;;;;8.85;4.00;;;;;;;;;;4995856;28;20026;-65
2021/12/06 12:47:53;;;;;;;7.63;3.67;;;;;;;;;;5002577;28;20102;-64
2021/12/06 12:50:39;;;;;;;8.30;4.40;;;;;;;;;;4990572;28;20051;-67
2021/12/06 12:53:24;;;;;;;8.00;3.92;;;;;;;;;;4994380;28;20028;-63
2021/12/06 12:56:21;;;;;;;6.40;4.10;;;;;;;;;;4993399;28;20459;-64
2021/12/06 12:59:29;;;;;;;8.88;4.07;;;;;;;;;;4993068;28;20033;-67
2021/12/06 13:02:19;;;;;;;6.65;3.88;;;;;;;;;;4988593;28;20038;-65
2021/12/06 13:05:07;;;;;;;;;;;;;;;;;;4993481;28;20519;-63
2021/12/06 13:08:00;;;;;;;9.25;4.78;;;;;;;;;;4994232;28;19921;-65
2021/12/06 13:10:47;;;;;;;7.80;4.50;;;;;;;;;;4978130;28;20029;-64
2021/12/06 13:13:39;;;;;;;10.60;4.65;;;;;;;;;;4985645;28;20038;-66
2021/12/06 13:16:53;;;;;;;9.05;4.72;;;;;;;;;;4992484;28;20392;-63
2021/12/06 13:19:47;;;;;;;8.93;4.57;;;;;;;;;;4987511;28;20054;-70
2021/12/06 13:22:33;;;;;;;7.13;4.43;;;;;;;;;;4981799;28;20030;-71
2021/12/06 13:25:28;;;;;;;10.77;4.38;;;;;;;;;;4985421;28;20507;-70
2021/12/06 13:28:13;;;;;;;10.30;4.38;;;;;;;;;;4973407;28;20485;-68
2021/12/06 13:31:02;;;;;;;7.80;4.53;;;;;;;;;;4987108;28;21589;-70
2021/12/06 13:33:48;;;;;;;8.90;4.78;;;;;;;;;;4993661;28;20026;-71
2021/12/06 13:36:48;;;;;;;7.10;4.38;;;;;;;;;;4970212;28;20038;-62
2021/12/06 13:39:38;;;;;;;5.93;3.63;;;;;;;;;;4981087;28;20026;-72
2021/12/06 13:42:37;;;;;;;5.70;3.38;;;;;;;;;;5004706;28;20030;-70
2021/12/06 13:45:27;;;;;;;7.85;3.03;;;;;;;;;;4992863;28;20026;-71
2021/12/06 13:48:14;;;;;;;5.00;3.00;;;;;;;;;;4989747;28;20033;-71
2021/12/06 13:51:00;;;;;;;5.50;2.90;;;;;;;;;;4992015;28;20113;-67
2021/12/06 13:53:52;;;;;;;7.18;3.47;;;;;;;;;;4978838;28;20384;-65
2021/12/06 13:56:45;;;;;;;6.75;3.92;;;;;;;;;;4991785;28;20102;-66
2021/12/06 13:59:39;;;;;;;9.48;3.47;;;;;;;;;;4992989;28;20400;-71
2021/12/06 14:02:28;;;;;;;6.72;3.20;;;;;;;;;;4989424;28;20489;-69
2021/12/06 14:05:15;;;;;;;5.40;2.90;;;;;;;;;;4989976;28;20030;-71
2021/12/06 14:08:00;;;;;;;6.53;3.30;;;;;;;;;;4973690;28;20041;-72
2021/12/06 14:10:46;;;;;;;7.50;2.95;;;;;;;;;;4992799;28;20399;-71
2021/12/06 14:13:34;;;;;;;4.43;2.70;;;;;;;;;;4991887;28;20056;-71
2021/12/06 14:16:20;;;;;;;7.90;2.97;;;;;;;;;;4979441;28;20032;-71
2021/12/06 14:19:05;;;;;;;4.93;3.00;;;;;;;;;;5006963;28;20559;-76
2021/12/06 14:21:51;;;;;;;4.97;2.60;;;;;;;;;;5047667;28;20192;-73
2021/12/06 14:24:38;;;;;;;4.68;2.67;;;;;;;;;;4987752;28;20420;-77
2021/12/06 14:27:25;;;;;;;6.10;3.55;;;;;;;;;;4970861;28;20030;-76
2021/12/06 14:30:12;;;;;;;6.38;2.65;;;;;;;;;;4986194;28;20026;-72
2021/12/06 14:32:58;;;;;;;6.70;2.67;;;;;;;;;;4988978;28;20438;-70
2021/12/06 14:35:44;;;;;;;4.00;2.28;;;;;;;;;;4983825;28;20082;-69
2021/12/06 14:38:32;;;;;;;4.35;2.13;;;;;;;;;;4991495;28;20450;-69
2021/12/06 14:41:17;;;;;;;6.88;2.30;;;;;;;;;;5039055;28;20057;-68
2021/12/06 14:44:02;;;;;;;5.60;2.20;;;;;;;;;;4991880;28;20369;-69
2021/12/06 14:46:48;;;;;;;4.63;2.53;;;;;;;;;;4994398;28;20560;-68
2021/12/06 14:49:33;;;;;;;9.07;2.50;;;;;;;;;;4981263;28;20633;-63
2021/12/06 14:52:23;;;;;;;5.13;2.63;;;;;;;;;;4993537;28;20400;-61
2021/12/06 14:58:03;;;;;;;6.43;2.80;;;;;;;;;;4992104;28;20098;-63
2021/12/06 15:00:57;;;;;;;6.18;2.70;;;;;;;;;;5000609;28;20030;-66
2021/12/06 15:03:53;;;;;;;4.68;2.67;;;;;;;;;;4966660;28;20067;-64
2021/12/06 15:06:39;;;;;;;3.50;2.28;;;;;;;;;;4988544;28;20098;-65
2021/12/06 15:09:24;;;;;;;6.22;2.97;;;;;;;;;;4977446;28;20022;-70
2021/12/06 15:12:09;;;;;;;4.65;2.33;;;;;;;;;;4986185;28;20038;-72
2021/12/06 15:14:55;;;;;;;7.00;2.63;;;;;;;;;;4990223;28;20473;-71
2021/12/06 15:17:42;;;;;;;4.82;2.47;;;;;;;;;;4991925;28;20046;-72
2021/12/06 15:20:28;;;;;;;6.72;2.35;;;;;;;;;;4969663;28;20031;-72
2021/12/06 15:23:16;;;;;;;6.85;2.40;;;;;;;;;;4990649;28;20105;-71
2021/12/06 15:26:02;;;;;;;5.88;2.67;;;;;;;;;;4990568;28;20434;-67
2021/12/06 15:28:48;;;;;;;5.38;2.60;;;;;;;;;;4983741;28;20034;-62
2021/12/06 15:31:33;;;;;;;6.18;3.08;;;;;;;;;;4983916;28;20115;-67
2021/12/06 15:34:20;;;;;;;6.88;2.40;;;;;;;;;;4991115;28;20022;-64
2021/12/06 15:37:06;;;;;;;3.75;2.40;;;;;;;;;;4990567;28;20042;-64
2021/12/06 15:39:51;;;;;;;6.65;2.95;;;;;;;;;;4990953;28;20050;-67
2021/12/06 15:42:37;;;;;;;4.47;2.20;;;;;;;;;;4990053;28;20110;-68
2021/12/06 15:45:24;;;;;;;4.57;2.33;;;;;;;;;;4984028;28;20053;-64
2021/12/06 15:48:09;;;;;;;6.13;2.60;;;;;;;;;;4989215;28;20069;-69
2021/12/06 15:50:55;;;;;;;4.68;2.67;;;;;;;;;;4990463;28;20020;-63
2021/12/06 15:53:42;;;;;;;5.43;2.95;;;;;;;;;;4984613;28;20473;-62
2021/12/06 15:56:28;;;;;;;3.90;2.00;;;;;;;;;;5002401;28;20050;-63
2021/12/06 15:59:14;;;;;;;4.78;2.33;;;;;;;;;;4975424;28;20026;-63
2021/12/06 16:02:05;;;;;;;5.07;2.88;;;;;;;;;;4983133;28;20565;-65
2021/12/06 16:04:51;;;;;;;5.50;3.33;;;;;;;;;;4988930;28;20052;-69
2021/12/06 16:07:37;;;;;;;4.90;2.97;;;;;;;;;;5015956;28;20119;-63
2021/12/06 16:10:23;;;;;;;8.98;3.75;;;;;;;;;;4977424;28;20408;-63
2021/12/06 16:13:10;;;;;;;5.25;2.83;;;;;;;;;;4990058;28;20041;-62
2021/12/06 16:15:57;;;;;;;6.28;2.65;;;;;;;;;;4995898;28;20381;-63
2021/12/06 16:18:46;;;;;;;5.22;3.20;;;;;;;;;;4991110;28;20496;-64
2021/12/06 16:21:34;;;;;;;6.50;3.63;;;;;;;;;;4991156;28;20042;-68
2021/12/06 16:24:20;;;;;;;7.45;3.42;;;;;;;;;;4996812;28;20107;-70
2021/12/06 16:27:14;;;;;;;6.78;3.47;;;;;;;;;;4981156;28;20279;-69
2021/12/06 16:30:02;;;;;;;6.72;2.83;;;;;;;;;;4992398;28;20033;-68
2021/12/06 16:32:48;;;;;;;5.88;3.40;;;;;;;;;;4991809;28;20346;-69
2021/12/06 16:35:36;;;;;;;5.05;2.80;;;;;;;;;;4980269;28;20384;-70
2021/12/06 16:38:34;;;;;;;6.77;2.53;;;;;;;;;;4993053;28;20109;-67
2021/12/06 16:41:22;;;;;;;5.88;2.42;;;;;;;;;;4993960;28;20022;-64
2021/12/06 16:44:10;;;;;;;8.52;2.85;;;;;;;;;;4991839;28;20030;-62
2021/12/06 16:47:15;;;;;;;5.00;2.53;;;;;;;;;;4989831;28;20408;-65